createdAt,value
2022-08-01T00:00:06.235Z,19.19
2022-08-01T00:02:35.805Z,19.21
2022-08-01T00:05:02.521Z,19.24
2022-08-01T00:07:29.038Z,19.24
2022-08-01T00:09:55.494Z,19.23
2022-08-01T00:12:21.964Z,19.20
2022-08-01T00:14:48.494Z,19.16
2022-08-01T00:17:15.039Z,19.18
2022-08-01T00:19:41.854Z,19.17
2022-08-01T00:22:09.067Z,19.17
2022-08-01T00:24:35.789Z,19.18
2022-08-01T00:27:02.285Z,19.19
2022-08-01T00:30:12.332Z,19.20
2022-08-01T00:32:15.255Z,19.19
2022-08-01T00:34:41.738Z,19.23
2022-08-01T00:37:08.317Z,19.25
2022-08-01T00:39:34.846Z,19.25
2022-08-01T00:42:08.439Z,19.19
2022-08-01T00:44:35.503Z,19.20
2022-08-01T00:47:02.171Z,19.17
2022-08-01T00:49:29.206Z,19.15
2022-08-01T00:51:56.714Z,19.19
2022-08-01T00:54:25.130Z,19.18
2022-08-01T00:56:51.955Z,19.18
2022-08-01T00:59:19.424Z,19.18
2022-08-01T01:01:49.876Z,19.14
2022-08-01T01:04:17.624Z,19.12
2022-08-01T01:07:05.392Z,19.10
2022-08-01T01:09:47.157Z,19.11
2022-08-01T01:12:26.216Z,19.07
2022-08-01T01:15:14.404Z,19.07
2022-08-01T01:17:51.434Z,19.09
2022-08-01T01:20:19.390Z,19.12
2022-08-01T01:23:24.818Z,19.11
2022-08-01T01:26:09.851Z,19.10
2022-08-01T01:29:13.885Z,19.04
2022-08-01T01:31:45.554Z,19.04
2022-08-01T01:34:14.711Z,19.01
2022-08-01T01:36:43.603Z,18.98
2022-08-01T01:39:11.302Z,18.98
2022-08-01T01:41:39.696Z,18.96
2022-08-01T01:44:06.798Z,18.99
2022-08-01T01:46:34.990Z,18.95
2022-08-01T01:49:02.832Z,18.95
2022-08-01T01:51:30.727Z,18.95
2022-08-01T01:53:59.294Z,18.94
2022-08-01T01:56:28.075Z,18.89
2022-08-01T01:59:02.203Z,18.90
2022-08-01T02:01:58.422Z,18.90
2022-08-01T02:04:20.862Z,18.89
2022-08-01T02:06:48.160Z,18.92
2022-08-01T02:09:20.420Z,18.93
2022-08-01T02:12:08.178Z,18.87
2022-08-01T02:14:38.887Z,18.93
2022-08-01T02:17:05.559Z,18.96
2022-08-01T02:19:38.332Z,18.97
2022-08-01T02:22:11.105Z,19.00
2022-08-01T02:24:40.169Z,19.00
2022-08-01T02:27:10.488Z,18.96
2022-08-01T02:30:05.836Z,18.93
2022-08-01T02:32:38.476Z,18.89
2022-08-01T02:35:08.708Z,18.87
2022-08-01T02:37:42.977Z,18.85
2022-08-01T02:40:14.530Z,18.91
2022-08-01T02:42:46.207Z,18.94
2022-08-01T02:45:14.112Z,18.97
2022-08-01T02:47:43.219Z,18.97
2022-08-01T02:50:13.379Z,18.93
2022-08-01T02:52:42.405Z,18.95
2022-08-01T02:55:10.154Z,18.98
2022-08-01T02:57:52.329Z,18.94
2022-08-01T03:00:20.172Z,18.82
2022-08-01T03:02:51.547Z,18.83
2022-08-01T03:05:18.674Z,18.86
2022-08-01T03:07:48.519Z,18.84
2022-08-01T03:10:17.217Z,18.83
2022-08-01T03:12:46.358Z,18.84
2022-08-01T03:15:16.351Z,18.84
2022-08-01T03:17:45.155Z,18.85
2022-08-01T03:20:15.049Z,18.84
2022-08-01T03:22:44.600Z,18.78
2022-08-01T03:25:14.672Z,18.70
2022-08-01T03:27:44.281Z,18.64
2022-08-01T03:30:11.841Z,18.68
2022-08-01T03:32:38.534Z,18.73
2022-08-01T03:35:05.732Z,18.73
2022-08-01T03:37:59.945Z,18.75
2022-08-01T03:40:36.273Z,18.77
2022-08-01T03:43:15.621Z,18.74
2022-08-01T03:45:49.175Z,18.74
2022-08-01T03:48:18.921Z,18.76
2022-08-01T03:50:51.586Z,18.71
2022-08-01T03:53:23.165Z,18.72
2022-08-01T03:55:50.918Z,18.75
2022-08-01T03:58:18.026Z,18.77
2022-08-01T04:00:45.310Z,18.80
2022-08-01T04:03:14.770Z,18.80
2022-08-01T04:05:44.618Z,18.80
2022-08-01T04:08:11.426Z,18.80
2022-08-01T04:10:38.687Z,18.86
2022-08-01T04:13:05.262Z,18.89
2022-08-01T04:15:31.773Z,18.88
2022-08-01T04:17:58.261Z,18.82
2022-08-01T04:20:24.737Z,18.80
2022-08-01T04:22:51.345Z,18.79
2022-08-01T04:25:27.943Z,18.78
2022-08-01T04:27:55.831Z,18.84
2022-08-01T04:30:26.943Z,18.82
2022-08-01T04:32:56.040Z,18.80
2022-08-01T04:36:02.814Z,18.77
2022-08-01T04:38:14.131Z,18.79
2022-08-01T04:40:42.099Z,18.77
2022-08-01T04:43:09.022Z,18.74
2022-08-01T04:45:36.483Z,18.77
2022-08-01T04:48:07.536Z,18.70
2022-08-01T04:50:37.077Z,18.73
2022-08-01T04:53:04.438Z,18.73
2022-08-01T04:55:32.362Z,18.74
2022-08-01T04:57:58.919Z,18.74
2022-08-01T05:00:26.847Z,18.71
2022-08-01T05:02:53.332Z,18.74
2022-08-01T05:05:21.437Z,18.73
2022-08-01T05:07:48.073Z,18.79
2022-08-01T05:10:15.690Z,18.76
2022-08-01T05:12:42.194Z,18.79
2022-08-01T05:15:14.766Z,18.76
2022-08-01T05:17:43.327Z,18.74
2022-08-01T05:20:11.058Z,18.78
2022-08-01T05:22:37.548Z,18.88
2022-08-01T05:25:05.917Z,18.93
2022-08-01T05:27:33.481Z,18.94
2022-08-01T05:30:00.581Z,18.87
2022-08-01T05:32:28.148Z,18.78
2022-08-01T05:34:54.720Z,18.78
2022-08-01T05:37:21.465Z,18.81
2022-08-01T05:39:47.958Z,18.84
2022-08-01T05:42:14.507Z,18.89
2022-08-01T05:44:41.016Z,18.87
2022-08-01T05:47:07.518Z,18.92
2022-08-01T05:49:34.101Z,18.94
2022-08-01T05:52:02.949Z,18.96
2022-08-01T05:54:29.845Z,18.99
2022-08-01T05:57:00.465Z,18.98
2022-08-01T05:59:27.248Z,19.02
2022-08-01T06:01:53.796Z,19.01
2022-08-01T06:04:20.425Z,19.03
2022-08-01T06:06:47.337Z,19.04
2022-08-01T06:09:13.884Z,19.07
2022-08-01T06:11:40.392Z,19.11
2022-08-01T06:14:07.037Z,19.11
2022-08-01T06:16:33.652Z,19.04
2022-08-01T06:19:00.280Z,19.07
2022-08-01T06:21:26.843Z,19.11
2022-08-01T06:23:53.291Z,19.04
2022-08-01T06:26:20.760Z,19.00
2022-08-01T06:28:47.326Z,18.95
2022-08-01T06:31:14.817Z,19.01
2022-08-01T06:33:41.367Z,19.01
2022-08-01T06:36:07.936Z,19.02
2022-08-01T06:38:34.398Z,19.01
2022-08-01T06:41:00.953Z,18.94
2022-08-01T06:43:27.540Z,18.92
2022-08-01T06:45:54.119Z,18.90
2022-08-01T06:48:20.575Z,18.88
2022-08-01T06:50:47.095Z,18.93
2022-08-01T06:53:13.625Z,18.98
2022-08-01T06:55:40.163Z,19.11
2022-08-01T06:58:06.721Z,19.09
2022-08-01T07:00:33.289Z,19.12
2022-08-01T07:03:00.804Z,19.09
2022-08-01T07:05:27.457Z,19.03
2022-08-01T07:07:54.295Z,19.09
2022-08-01T07:10:21.019Z,19.07
2022-08-01T07:12:47.529Z,19.05
2022-08-01T07:15:14.057Z,18.92
2022-08-01T07:17:41.476Z,18.93
2022-08-01T07:20:13.796Z,19.05
2022-08-01T07:22:41.865Z,19.14
2022-08-01T07:25:09.991Z,19.15
2022-08-01T07:27:37.234Z,19.10
2022-08-01T07:30:06.197Z,19.13
2022-08-01T07:32:32.942Z,19.12
2022-08-01T07:34:59.527Z,19.09
2022-08-01T07:37:45.483Z,19.13
2022-08-01T07:40:14.346Z,19.12
2022-08-01T07:42:44.331Z,19.13
2022-08-01T07:45:12.400Z,19.10
2022-08-01T07:47:39.204Z,19.07
2022-08-01T07:50:06.966Z,19.10
2022-08-01T07:52:33.500Z,19.17
2022-08-01T07:55:00.168Z,19.16
2022-08-01T07:57:26.715Z,19.12
2022-08-01T07:59:53.251Z,19.08
2022-08-01T08:02:19.779Z,19.05
2022-08-01T08:04:49.054Z,18.98
2022-08-01T08:07:16.351Z,18.93
2022-08-01T08:09:42.952Z,18.85
2022-08-01T08:12:10.302Z,18.90
2022-08-01T08:14:37.521Z,18.92
2022-08-01T08:17:04.845Z,18.93
2022-08-01T08:19:38.571Z,18.86
2022-08-01T08:22:07.269Z,18.75
2022-08-01T08:24:34.108Z,18.73
2022-08-01T08:27:02.274Z,18.79
2022-08-01T08:29:30.885Z,18.58
2022-08-01T08:31:58.574Z,18.47
2022-08-01T08:34:26.785Z,18.44
2022-08-01T08:36:55.546Z,18.34
2022-08-01T08:39:22.513Z,18.38
2022-08-01T08:41:50.047Z,18.43
2022-08-01T08:44:17.856Z,18.43
2022-08-01T08:46:48.337Z,18.36
2022-08-01T08:49:24.734Z,18.35
2022-08-01T08:51:53.541Z,18.45
2022-08-01T08:54:27.728Z,18.50
2022-08-01T08:56:59.794Z,18.61
2022-08-01T08:59:26.889Z,18.68
2022-08-01T09:01:53.709Z,18.67
2022-08-01T09:04:26.145Z,18.72
2022-08-01T09:06:54.096Z,18.79
2022-08-01T09:09:20.818Z,18.81
2022-08-01T09:11:57.537Z,18.85
2022-08-01T09:14:32.408Z,18.86
2022-08-01T09:17:09.767Z,18.94
2022-08-01T09:19:41.987Z,18.92
2022-08-01T09:22:14.090Z,18.98
2022-08-01T09:24:41.979Z,19.12
2022-08-01T09:27:21.655Z,19.18
2022-08-01T09:29:49.935Z,19.17
2022-08-01T09:32:34.242Z,19.23
2022-08-01T09:35:30.002Z,19.30
2022-08-01T09:38:24.430Z,19.37
2022-08-01T09:40:54.846Z,19.34
2022-08-01T09:43:24.582Z,19.20
2022-08-01T09:45:53.420Z,19.28
2022-08-01T09:48:22.506Z,19.19
2022-08-01T09:50:55.351Z,19.09
2022-08-01T09:53:29.695Z,19.15
2022-08-01T09:56:10.169Z,19.27
2022-08-01T09:59:01.694Z,19.39
2022-08-01T10:01:41.887Z,19.38
2022-08-01T10:04:11.079Z,19.59
2022-08-01T10:06:39.537Z,19.70
2022-08-01T10:09:07.540Z,19.69
2022-08-01T10:11:36.516Z,19.86
2022-08-01T10:14:03.811Z,19.91
2022-08-01T10:16:31.314Z,19.71
2022-08-01T10:18:58.562Z,19.61
2022-08-01T10:21:56.899Z,19.70
2022-08-01T10:24:18.846Z,19.70
2022-08-01T10:26:50.042Z,19.67
2022-08-01T10:29:46.576Z,19.77
2022-08-01T10:32:07.458Z,19.87
2022-08-01T10:34:35.553Z,20.05
2022-08-01T10:37:02.614Z,20.02
2022-08-01T10:39:33.457Z,20.03
2022-08-01T10:42:01.307Z,20.16
2022-08-01T10:44:30.052Z,20.38
2022-08-01T10:47:05.343Z,20.32
2022-08-01T10:49:44.371Z,20.53
2022-08-01T10:52:20.514Z,20.70
2022-08-01T10:54:52.792Z,20.70
2022-08-01T10:57:23.171Z,20.70
2022-08-01T11:00:01.274Z,20.78
2022-08-01T11:02:34.461Z,20.85
2022-08-01T11:05:21.029Z,20.91
2022-08-01T11:07:55.035Z,21.13
2022-08-01T11:10:36.393Z,21.11
2022-08-01T11:13:06.677Z,21.10
2022-08-01T11:15:33.207Z,21.07
2022-08-01T11:18:02.143Z,21.09
2022-08-01T11:20:34.625Z,20.88
2022-08-01T11:23:07.069Z,20.72
2022-08-01T11:26:04.765Z,20.88
2022-08-01T11:28:32.724Z,21.09
2022-08-01T11:31:14.088Z,21.18
2022-08-01T11:33:41.110Z,21.26
2022-08-01T11:36:14.633Z,21.27
2022-08-01T11:38:43.378Z,21.21
2022-08-01T11:41:37.398Z,21.37
2022-08-01T11:44:16.794Z,21.39
2022-08-01T11:46:47.558Z,21.45
2022-08-01T11:49:35.258Z,21.52
2022-08-01T11:52:06.707Z,21.71
2022-08-01T11:54:46.715Z,21.81
2022-08-01T11:57:14.722Z,21.69
2022-08-01T12:00:03.732Z,21.65
2022-08-01T12:02:35.147Z,21.53
2022-08-01T12:05:08.457Z,21.32
2022-08-01T12:07:37.198Z,21.32
2022-08-01T12:10:16.780Z,21.33
2022-08-01T12:12:51.053Z,21.32
2022-08-01T12:15:19.109Z,21.25
2022-08-01T12:17:57.875Z,21.41
2022-08-01T12:20:32.402Z,21.62
2022-08-01T12:23:02.254Z,22.01
2022-08-01T12:25:29.490Z,22.45
2022-08-01T12:27:57.873Z,22.56
2022-08-01T12:30:25.960Z,22.51
2022-08-01T12:32:54.337Z,22.41
2022-08-01T12:35:25.615Z,22.50
2022-08-01T12:37:54.681Z,22.54
2022-08-01T12:40:24.302Z,22.34
2022-08-01T12:42:54.752Z,22.45
2022-08-01T12:45:31.399Z,22.61
2022-08-01T12:48:00.523Z,22.77
2022-08-01T12:50:30.605Z,22.98
2022-08-01T12:52:58.802Z,23.11
2022-08-01T12:55:33.830Z,22.88
2022-08-01T12:58:15.389Z,22.88
2022-08-01T13:00:45.476Z,22.96
2022-08-01T13:03:15.802Z,23.27
2022-08-01T13:05:42.381Z,23.52
2022-08-01T13:08:17.174Z,23.69
2022-08-01T13:10:44.761Z,23.78
2022-08-01T13:13:22.124Z,23.56
2022-08-01T13:16:05.478Z,23.49
2022-08-01T13:18:35.297Z,23.54
2022-08-01T13:21:08.666Z,23.45
2022-08-01T13:24:03.778Z,23.65
2022-08-01T13:26:41.888Z,23.94
2022-08-01T13:29:09.987Z,23.92
2022-08-01T13:31:38.155Z,23.90
2022-08-01T13:34:05.278Z,24.05
2022-08-01T13:36:32.279Z,24.02
2022-08-01T13:39:18.243Z,23.65
2022-08-01T13:41:45.707Z,23.75
2022-08-01T13:44:12.480Z,23.60
2022-08-01T13:46:40.082Z,23.39
2022-08-01T13:49:16.777Z,23.52
2022-08-01T13:51:43.596Z,23.53
2022-08-01T13:54:10.256Z,23.62
2022-08-01T13:56:36.856Z,23.61
2022-08-01T13:59:03.937Z,23.55
2022-08-01T14:01:34.196Z,23.51
2022-08-01T14:04:01.654Z,23.53
2022-08-01T14:06:28.133Z,23.53
2022-08-01T14:08:54.666Z,23.61
2022-08-01T14:11:21.447Z,23.70
2022-08-01T14:13:48.078Z,23.54
2022-08-01T14:16:15.418Z,23.53
2022-08-01T14:18:42.144Z,23.37
2022-08-01T14:21:10.850Z,23.06
2022-08-01T14:23:37.376Z,23.17
2022-08-01T14:26:09.758Z,23.31
2022-08-01T14:28:39.599Z,23.36
2022-08-01T14:31:09.365Z,23.43
2022-08-01T14:33:35.994Z,23.17
2022-08-01T14:36:28.513Z,23.03
2022-08-01T14:38:50.435Z,23.04
2022-08-01T14:41:16.953Z,22.91
2022-08-01T14:43:43.557Z,23.08
2022-08-01T14:46:11.032Z,23.01
2022-08-01T14:48:37.875Z,22.84
2022-08-01T14:51:05.163Z,22.81
2022-08-01T14:53:34.353Z,22.93
2022-08-01T14:56:02.870Z,22.91
2022-08-01T14:58:29.558Z,22.86
2022-08-01T15:00:58.795Z,22.73
2022-08-01T15:03:26.240Z,22.62
2022-08-01T15:05:52.827Z,22.50
2022-08-01T15:08:19.435Z,22.49
2022-08-01T15:10:46.003Z,22.43
2022-08-01T15:13:12.491Z,22.36
2022-08-01T15:15:38.952Z,22.33
2022-08-01T15:18:05.660Z,22.34
2022-08-01T15:20:33.766Z,22.41
2022-08-01T15:23:00.371Z,22.41
2022-08-01T15:25:26.954Z,22.43
2022-08-01T15:28:10.501Z,22.38
2022-08-01T15:30:37.071Z,22.42
2022-08-01T15:33:04.001Z,22.38
2022-08-01T15:35:30.557Z,22.36
2022-08-01T15:37:57.189Z,22.40
2022-08-01T15:40:23.942Z,22.41
2022-08-01T15:42:50.455Z,22.48
2022-08-01T15:45:45.951Z,22.44
2022-08-01T15:48:08.529Z,22.49
2022-08-01T15:50:35.406Z,22.46
2022-08-01T15:53:01.961Z,22.39
2022-08-01T15:55:28.453Z,22.43
2022-08-01T15:57:54.953Z,22.29
2022-08-01T16:00:21.860Z,22.31
2022-08-01T16:02:48.402Z,22.42
2022-08-01T16:05:20.164Z,22.38
2022-08-01T16:07:59.243Z,22.34
2022-08-01T16:10:28.851Z,22.28
2022-08-01T16:12:55.453Z,22.29
2022-08-01T16:15:22.187Z,22.23
2022-08-01T16:17:48.777Z,22.11
2022-08-01T16:20:15.267Z,22.21
2022-08-01T16:22:41.746Z,22.27
2022-08-01T16:25:08.855Z,22.23
2022-08-01T16:27:35.333Z,22.31
2022-08-01T16:30:06.103Z,22.20
2022-08-01T16:32:35.025Z,22.25
2022-08-01T16:35:08.143Z,22.32
2022-08-01T16:37:35.690Z,22.27
2022-08-01T16:40:02.194Z,22.39
2022-08-01T16:42:28.956Z,22.76
2022-08-01T16:44:55.496Z,22.63
2022-08-01T16:47:22.032Z,22.44
2022-08-01T16:49:48.487Z,22.37
2022-08-01T16:52:16.117Z,22.28
2022-08-01T16:54:42.603Z,22.25
2022-08-01T16:57:09.379Z,22.20
2022-08-01T16:59:40.856Z,22.19
2022-08-01T17:02:08.398Z,22.17
2022-08-01T17:04:34.904Z,22.26
2022-08-01T17:07:01.477Z,22.29
2022-08-01T17:09:28.134Z,22.24
2022-08-01T17:11:54.625Z,22.16
2022-08-01T17:14:21.100Z,21.99
2022-08-01T17:16:48.252Z,21.91
2022-08-01T17:19:15.059Z,21.94
2022-08-01T17:21:42.138Z,21.89
2022-08-01T17:24:08.999Z,22.01
2022-08-01T17:26:35.524Z,22.01
2022-08-01T17:29:01.979Z,22.05
2022-08-01T17:31:28.471Z,22.09
2022-08-01T17:33:55.370Z,21.88
2022-08-01T17:36:22.235Z,21.88
2022-08-01T17:38:49.085Z,21.78
2022-08-01T17:41:15.853Z,21.72
2022-08-01T17:43:42.385Z,21.74
2022-08-01T17:46:08.917Z,21.78
2022-08-01T17:48:35.673Z,21.74
2022-08-01T17:51:02.243Z,21.73
2022-08-01T17:53:29.634Z,21.67
2022-08-01T17:55:58.548Z,21.62
2022-08-01T17:58:48.998Z,21.59
2022-08-01T18:01:17.202Z,21.58
2022-08-01T18:03:44.424Z,21.55
2022-08-01T18:06:17.538Z,21.47
2022-08-01T18:08:47.044Z,21.46
2022-08-01T18:11:15.330Z,21.32
2022-08-01T18:13:42.050Z,21.21
2022-08-01T18:16:12.698Z,21.17
2022-08-01T18:18:41.305Z,21.20
2022-08-01T18:21:08.525Z,21.29
2022-08-01T18:23:35.765Z,21.19
2022-08-01T18:26:03.419Z,21.14
2022-08-01T18:28:35.332Z,21.10
2022-08-01T18:31:03.670Z,20.91
2022-08-01T18:33:30.296Z,20.87
2022-08-01T18:36:01.874Z,20.87
2022-08-01T18:38:33.839Z,20.84
2022-08-01T18:41:01.824Z,20.83
2022-08-01T18:43:28.836Z,20.81
2022-08-01T18:45:58.337Z,20.75
2022-08-01T18:48:24.890Z,20.70
2022-08-01T18:50:52.329Z,20.69
2022-08-01T18:53:20.685Z,20.60
2022-08-01T18:55:47.278Z,20.58
2022-08-01T18:58:13.713Z,20.51
2022-08-01T19:00:40.336Z,20.47
2022-08-01T19:03:07.755Z,20.44
2022-08-01T19:05:36.063Z,20.31
2022-08-01T19:08:04.852Z,20.25
2022-08-01T19:10:35.294Z,20.16
2022-08-01T19:13:02.940Z,20.11
2022-08-01T19:15:29.580Z,20.05
2022-08-01T19:17:56.154Z,19.94
2022-08-01T19:20:22.830Z,19.92
2022-08-01T19:22:49.526Z,19.90
2022-08-01T19:25:16.380Z,19.86
2022-08-01T19:27:47.826Z,19.74
2022-08-01T19:30:15.024Z,19.47
2022-08-01T19:32:46.197Z,19.28
2022-08-01T19:35:14.914Z,19.12
2022-08-01T19:37:48.717Z,19.03
2022-08-01T19:40:26.082Z,18.89
2022-08-01T19:42:55.027Z,18.70
2022-08-01T19:45:22.101Z,18.51
2022-08-01T19:47:56.817Z,18.41
2022-08-01T19:50:28.372Z,18.29
2022-08-01T19:53:02.411Z,18.26
2022-08-01T19:55:30.761Z,18.26
2022-08-01T19:58:25.433Z,18.27
2022-08-01T20:00:47.040Z,18.24
2022-08-01T20:03:15.111Z,18.21
2022-08-01T20:05:41.792Z,18.16
2022-08-01T20:08:09.233Z,18.11
2022-08-01T20:10:38.183Z,18.05
2022-08-01T20:13:05.435Z,18.06
2022-08-01T20:15:32.332Z,18.07
2022-08-01T20:17:59.148Z,18.02
2022-08-01T20:20:26.513Z,17.93
2022-08-01T20:22:56.752Z,17.87
2022-08-01T20:25:33.494Z,17.82
2022-08-01T20:28:09.449Z,17.80
2022-08-01T20:30:36.094Z,17.81
2022-08-01T20:33:03.212Z,17.79
2022-08-01T20:35:52.341Z,17.65
2022-08-01T20:38:17.540Z,17.24
2022-08-01T20:40:45.601Z,17.03
2022-08-01T20:43:13.783Z,16.87
2022-08-01T20:45:42.401Z,16.61
2022-08-01T20:48:12.423Z,16.55
2022-08-01T20:50:59.359Z,16.53
2022-08-01T20:53:26.116Z,16.51
2022-08-01T20:56:07.275Z,16.56
2022-08-01T20:58:42.707Z,16.56
2022-08-01T21:01:09.929Z,16.58
2022-08-01T21:03:45.451Z,16.67
2022-08-01T21:06:20.918Z,16.58
2022-08-01T21:08:49.915Z,16.40
2022-08-01T21:11:21.029Z,16.17
2022-08-01T21:13:49.227Z,16.01
2022-08-01T21:16:24.391Z,15.89
2022-08-01T21:19:21.736Z,15.72
2022-08-01T21:22:09.616Z,15.74
2022-08-01T21:24:58.272Z,15.85
2022-08-01T21:27:33.135Z,16.02
2022-08-01T21:30:02.454Z,16.17
2022-08-01T21:32:33.143Z,16.20
2022-08-01T21:35:00.993Z,15.92
2022-08-01T21:37:29.514Z,15.76
2022-08-01T21:39:58.250Z,15.73
2022-08-01T21:42:28.592Z,15.75
2022-08-01T21:45:00.071Z,15.75
2022-08-01T21:47:28.931Z,15.80
2022-08-01T21:49:59.869Z,15.90
2022-08-01T21:52:26.731Z,15.90
2022-08-01T21:55:35.043Z,15.82
2022-08-01T21:58:39.804Z,15.53
2022-08-01T22:01:13.554Z,15.36
2022-08-01T22:03:44.561Z,15.43
2022-08-01T22:06:14.030Z,15.49
2022-08-01T22:08:49.670Z,15.55
2022-08-01T22:11:22.625Z,15.61
2022-08-01T22:13:54.043Z,15.67
2022-08-01T22:16:21.427Z,15.52
2022-08-01T22:18:48.592Z,15.38
2022-08-01T22:21:16.967Z,15.21
2022-08-01T22:23:44.400Z,15.01
2022-08-01T22:26:11.995Z,15.05
2022-08-01T22:28:40.385Z,15.10
2022-08-01T22:31:07.581Z,15.18
2022-08-01T22:33:38.555Z,15.16
2022-08-01T22:36:07.097Z,15.05
2022-08-01T22:38:34.504Z,14.99
2022-08-01T22:41:04.783Z,14.99
2022-08-01T22:43:51.793Z,14.99
2022-08-01T22:46:56.140Z,14.94
2022-08-01T22:49:22.811Z,15.07
2022-08-01T22:52:02.002Z,15.23
2022-08-01T22:54:36.161Z,15.42
2022-08-01T22:57:07.548Z,15.40
2022-08-01T22:59:48.480Z,15.23
2022-08-01T23:02:17.279Z,15.20
2022-08-01T23:04:46.877Z,15.22
2022-08-01T23:07:22.843Z,15.20
2022-08-01T23:09:54.765Z,15.16
2022-08-01T23:12:24.296Z,15.07
2022-08-01T23:14:54.976Z,14.98
2022-08-01T23:17:27.830Z,14.95
2022-08-01T23:20:02.395Z,15.06
2022-08-01T23:22:33.896Z,15.14
2022-08-01T23:25:05.138Z,15.19
2022-08-01T23:28:04.737Z,15.26
2022-08-01T23:30:30.744Z,15.29
2022-08-01T23:32:57.986Z,15.12
2022-08-01T23:35:25.754Z,15.07
2022-08-01T23:37:52.916Z,15.08
2022-08-01T23:40:20.058Z,15.04
2022-08-01T23:42:47.110Z,15.03
2022-08-01T23:45:13.894Z,15.11
2022-08-01T23:47:40.469Z,14.99
2022-08-01T23:50:07.941Z,14.97
2022-08-01T23:52:36.872Z,15.07
2022-08-01T23:55:15.589Z,15.16
2022-08-01T23:57:42.505Z,15.19
